Friday, October 20, 2017, 9:15 PM EDT
Back to Local

KMVY, Vineyard Haven Marthas Vin

Location: Vineyard Haven, MA, United States Lat: 41.4
Local Time: 9:15 PM EDT ( 1:15 GMT) Lon: -70.617
Time Zone: US/Eastern Elev: 68 ft

Show me the last for .
Show Decoded

2017-10-20 20:53 METAR KMVY 210053Z 30007KT 10SM CLR 15/06 A3009 RMK AO2 SLP188 T01500061 =
2017-10-20 19:53 METAR KMVY 202353Z 29006KT 10SM CLR 13/08 A3006 RMK AO2 SLP180 T01330078 10206
                 20117 51015 =
2017-10-20 18:53 METAR KMVY 202253Z 29005KT 10SM CLR 14/08 A3005 RMK AO2 SLP175 T01390078 =
2017-10-20 17:53 METAR KMVY 202153Z 29003KT 10SM CLR 17/07 A3004 RMK AO2 SLP171 T01670072 =
2017-10-20 16:53 METAR KMVY 202053Z 30006KT 10SM CLR 19/07 A3002 RMK AO2 SLP165 T01940072 53003 =
2017-10-20 15:53 METAR KMVY 201953Z 29008KT 10SM CLR 21/06 A3001 RMK AO2 SLP161 T02060061 =
2017-10-20 14:53 METAR KMVY 201853Z 28009KT 10SM CLR 21/06 A3000 RMK AO2 SLP159 T02060061 =
2017-10-20 13:53 METAR KMVY 201753Z 30009G18KT 10SM CLR 20/06 A3001 RMK AO2 SLP161 T02000056
                 10211 20150 58015 =
2017-10-20 12:53 METAR KMVY 201653Z 31009G18KT 10SM CLR 20/06 A3002 RMK AO2 SLP166 T02000056 =
2017-10-20 11:53 METAR KMVY 201553Z 32014KT 10SM CLR 19/06 A3004 RMK AO2 SLP171 T01940061 =
2017-10-20 10:53 METAR KMVY 201453Z 32012KT 10SM CLR 19/08 A3005 RMK AO2 SLP175 T01890078 50007 =
2017-10-20 09:53 METAR KMVY 201353Z 32011KT 10SM CLR 18/09 A3006 RMK AO2 SLP177 T01830089 =
2017-10-20 08:53 METAR KMVY 201253Z 31009KT 10SM CLR 17/09 A3005 RMK AO2 SLP177 T01670094 =
2017-10-20 07:53 METAR KMVY 201153Z 31007KT 10SM CLR 15/09 A3003 RMK AO2 SLP168 T01500094 10161
                 20139 53006 =
2017-10-20 06:53 METAR KMVY 201053Z 31007KT 10SM CLR 14/08 A3002 RMK AO2 SLP165 T01440083 =
2017-10-20 05:53 METAR KMVY 200953Z 30007KT 10SM CLR 15/10 A3001 RMK AO2 SLP162 T01500100 =
2017-10-20 04:53 METAR KMVY 200853Z AUTO 28007KT 10SM CLR 16/13 A3001 RMK AO2 SLP162 T01560133
                 56006 =
2017-10-20 03:53 METAR KMVY 200753Z AUTO 24005KT 10SM CLR 16/14 A3001 RMK AO2 SLP162 T01610144 =
2017-10-20 02:53 METAR KMVY 200653Z AUTO 24008KT 10SM CLR 16/14 A3001 RMK AO2 SLP163 T01610144 =
2017-10-20 01:53 METAR KMVY 200553Z AUTO 23009KT 10SM CLR 16/14 A3003 RMK AO2 SLP168 T01610139
                 10167 20156 58013 =
2017-10-20 00:53 METAR KMVY 200453Z AUTO 22010KT 10SM CLR 16/14 A3004 RMK AO2 SLP172 T01560139
                 402000044 =
2017-10-19 23:53 METAR KMVY 200353Z AUTO 23010KT 10SM CLR 16/14 A3006 RMK AO2 SLP178 T01560139 =
2017-10-19 22:53 METAR KMVY 200253Z AUTO 25009G18KT 10SM CLR 16/13 A3007 RMK AO2 SLP181 T01560128
                 55006 =
2017-10-19 21:53 METAR KMVY 200153Z 23011KT 10SM CLR 16/12 A3006 RMK AO2 SLP179 T01560122 =

Support USWX by starting your Amazon purchase here.